Time;durP1;ratioP1;P1;durP2;ratioP2;P2;SDS_P1;SDS_P2;PMS_P1;PMS_P2;Temp;Humidity;BMP_temperature;BMP_pressure;BME280_temperature;BME280_humidity;BME280_pressure;Samples;Min_cycle;Max_cycle;Signal;HPM_P1;HPM_P2
2023/06/08 00:01:07;;;;;;;13.48;7.85;;;;;;;20.29;64.61;99692.06;7848647;31;40768;-82
2023/06/08 00:05:23;;;;;;;12.95;7.20;;;;;;;20.20;64.84;99692.94;7848557;31;37809;-82
2023/06/08 00:09:40;;;;;;;14.65;8.68;;;;;;;20.13;65.08;99695.44;7848516;31;37501;-82
2023/06/08 00:13:56;;;;;;;11.25;7.45;;;;;;;20.33;64.29;99690.22;7848522;31;39841;-82
2023/06/08 00:18:13;;;;;;;12.77;7.60;;;;;;;20.13;65.12;99678.84;7848402;31;39939;-82
2023/06/08 00:22:34;;;;;;;16.77;7.97;;;;;;;20.11;65.30;99689.44;7848534;31;38125;-83
2023/06/08 00:26:52;;;;;;;13.52;8.18;;;;;;;20.23;65.01;99680.37;7848413;31;37800;-82
2023/06/08 00:31:08;;;;;;;12.75;7.43;;;;;;;20.30;64.92;99683.41;7848151;31;40093;-82
2023/06/08 00:35:25;;;;;;;12.70;7.85;;;;;;;20.06;66.02;99681.34;7848273;31;39629;-82
2023/06/08 00:39:41;;;;;;;15.70;7.78;;;;;;;20.13;65.81;99678.00;7847869;31;38608;-82
2023/06/08 00:43:57;;;;;;;14.25;8.02;;;;;;;20.25;65.28;99673.34;7848317;31;37852;-82
2023/06/08 00:48:14;;;;;;;13.27;7.85;;;;;;;20.30;65.08;99675.13;7848016;31;39491;-82
2023/06/08 00:52:31;;;;;;;17.10;8.15;;;;;;;20.29;65.11;99667.13;7847998;31;39630;-82
2023/06/08 00:56:48;;;;;;;13.77;7.85;;;;;;;20.21;65.24;99666.88;7846688;31;38113;-82
2023/06/08 01:01:11;;;;;;;16.48;8.00;;;;;;;20.18;65.10;99662.03;7846685;31;37176;-82
2023/06/08 01:05:27;;;;;;;15.93;7.97;;;;;;;20.18;65.12;99667.56;7847848;31;39241;-81
2023/06/08 01:09:54;;;;;;;15.98;8.18;;;;;;;20.23;65.00;99669.28;7847854;31;39878;-83
2023/06/08 01:14:19;;;;;;;14.43;7.57;;;;;;;20.13;65.46;99670.53;7846587;31;37673;-83
2023/06/08 01:18:40;;;;;;;11.98;7.85;;;;;;;20.08;65.80;99679.03;7847608;31;37074;-83
2023/06/08 01:23:20;;;;;;;20.00;8.07;;;;;;;20.03;65.82;99676.47;7846261;31;39990;-82
2023/06/08 01:27:37;;;;;;;12.23;7.43;;;;;;;20.15;65.52;99662.69;7846630;31;39708;-82
2023/06/08 01:31:54;;;;;;;15.30;8.18;;;;;;;20.00;66.20;99672.41;7847267;31;38639;-82
2023/06/08 01:36:34;;;;;;;14.32;7.55;;;;;;;20.09;65.95;99664.03;7847478;31;37059;-82
2023/06/08 01:40:54;;;;;;;15.02;8.20;;;;;;;20.07;66.05;99666.34;7847573;31;40005;-81
2023/06/08 01:45:18;;;;;;;15.57;8.93;;;;;;;20.08;65.97;99651.37;7846321;31;39841;-81
2023/06/08 01:49:34;;;;;;;15.50;8.77;;;;;;;19.92;66.78;99659.47;7846323;31;38672;-82
2023/06/08 01:54:01;;;;;;;14.82;7.85;;;;;;;19.88;66.87;99658.53;7845595;31;37063;-82
2023/06/08 01:58:17;;;;;;;16.37;8.07;;;;;;;19.83;66.96;99670.63;7846093;31;40285;-82
2023/06/08 02:02:34;;;;;;;14.93;8.52;;;;;;;19.99;66.31;99664.44;7847291;31;39860;-82
2023/06/08 02:06:50;;;;;;;14.15;7.75;;;;;;;20.05;65.86;99652.84;7847171;31;37748;-82
2023/06/08 02:11:07;;;;;;;21.55;8.00;;;;;;;20.00;65.86;99658.59;7847146;31;37745;-82
2023/06/08 02:15:23;;;;;;;11.30;7.85;;;;;;;19.91;66.21;99659.81;7847002;31;40090;-83
2023/06/08 02:19:40;;;;;;;12.37;8.45;;;;;;;19.91;66.03;99663.38;7846911;31;40895;-82
2023/06/08 02:23:56;;;;;;;14.68;8.63;;;;;;;19.97;65.73;99662.06;7846837;31;37850;-82
2023/06/08 02:28:12;;;;;;;14.15;8.90;;;;;;;20.05;65.31;99652.03;7845681;31;36910;-82
2023/06/08 02:32:32;;;;;;;14.13;8.10;;;;;;;20.07;65.25;99658.03;7846633;31;39813;-82
2023/06/08 02:36:49;;;;;;;13.30;7.82;;;;;;;20.07;64.91;99656.09;7846507;31;39985;-82
2023/06/08 02:41:06;;;;;;;14.05;7.97;;;;;;;19.96;65.30;99662.38;7846583;31;37880;-82
2023/06/08 02:45:23;;;;;;;13.35;8.50;;;;;;;20.00;65.21;99664.13;7846637;31;37866;-82
2023/06/08 02:49:40;;;;;;;13.82;7.72;;;;;;;20.01;65.21;99662.97;7846620;31;39258;-82
2023/06/08 02:53:56;;;;;;;18.00;8.55;;;;;;;19.89;65.61;99663.72;7846504;31;40716;-82
2023/06/08 02:58:14;;;;;;;14.82;8.27;;;;;;;20.05;65.12;99668.66;7846129;31;38053;-82
2023/06/08 03:02:30;;;;;;;16.95;7.93;;;;;;;19.94;65.65;99665.47;7846346;31;37354;-81
2023/06/08 03:06:47;;;;;;;16.17;8.18;;;;;;;19.83;66.06;99665.09;7844923;31;39890;-82
2023/06/08 03:11:03;;;;;;;13.52;8.07;;;;;;;19.85;66.15;99665.56;7845987;31;40727;-82
2023/06/08 03:15:22;;;;;;;16.08;8.55;;;;;;;20.07;65.43;99660.81;7846316;31;36001;-82
2023/06/08 03:19:39;;;;;;;18.55;9.40;;;;;;;20.10;65.66;99653.81;7845839;31;37010;-82
2023/06/08 03:23:55;;;;;;;17.37;8.68;;;;;;;19.83;66.63;99659.56;7845792;31;40018;-82
2023/06/08 03:28:12;;;;;;;15.48;9.15;;;;;;;20.00;66.18;99671.63;7845499;31;39856;-82
2023/06/08 03:32:28;;;;;;;14.60;8.52;;;;;;;20.18;65.62;99667.56;7845357;31;37884;-82
2023/06/08 03:36:45;;;;;;;14.85;8.57;;;;;;;20.14;65.72;99665.81;7845423;31;37776;-82
2023/06/08 03:41:01;;;;;;;14.20;9.23;;;;;;;20.07;66.10;99667.19;7845267;31;39348;-83
2023/06/08 03:45:19;;;;;;;18.15;9.27;;;;;;;19.78;67.45;99681.87;7845281;31;39911;-83
2023/06/08 03:49:35;;;;;;;16.37;9.88;;;;;;;19.61;68.41;99676.41;7845212;31;37909;-83
2023/06/08 03:53:52;;;;;;;16.73;8.95;;;;;;;19.82;67.59;99679.25;7845021;31;37326;-70
2023/06/08 03:58:08;;;;;;;16.73;9.43;;;;;;;19.79;67.84;99677.16;7842637;31;40198;-69
2023/06/08 04:02:25;;;;;;;14.43;8.95;;;;;;;19.96;67.41;99676.22;7844999;31;39845;-82
2023/06/08 04:06:42;;;;;;;16.05;9.18;;;;;;;20.11;66.96;99678.38;7829848;31;38789;-84
2023/06/08 04:10:58;;;;;;;16.08;8.82;;;;;;;20.17;66.72;99677.00;7816881;31;37097;-82
2023/06/08 04:15:15;;;;;;;18.73;9.70;;;;;;;20.21;66.78;99674.38;7817556;31;39298;-82
2023/06/08 04:19:31;;;;;;;14.27;9.48;;;;;;;20.23;66.75;99672.87;7830280;31;40825;-84
2023/06/08 04:23:48;;;;;;;14.00;8.48;;;;;;;20.42;66.09;99660.47;7834107;31;37919;-87
2023/06/08 04:28:05;;;;;;;13.73;8.35;;;;;;;20.43;65.82;99656.56;7848538;31;37268;-84
2023/06/08 04:32:22;;;;;;;13.68;9.07;;;;;;;20.50;65.61;99662.34;7848700;31;40058;-88
2023/06/08 04:36:43;;;;;;;15.35;9.18;;;;;;;20.53;65.13;99667.22;7829187;31;40197;-84
2023/06/08 04:41:07;;;;;;;16.60;8.60;;;;;;;20.29;66.15;99656.06;7836250;31;36070;-82
2023/06/08 04:45:25;;;;;;;16.73;9.50;;;;;;;20.19;66.60;99669.16;7830633;31;37898;-85
2023/06/08 04:49:41;;;;;;;16.55;8.52;;;;;;;20.25;66.46;99667.81;7820682;32;39890;-84
2023/06/08 04:54:03;;;;;;;16.45;9.40;;;;;;;20.38;66.13;99670.63;7821432;31;39872;-84
2023/06/08 04:58:20;;;;;;;14.93;8.35;;;;;;;20.60;65.58;99672.19;7821034;31;37869;-84
2023/06/08 05:02:37;;;;;;;14.15;8.70;;;;;;;20.50;65.62;99673.44;7837133;31;37875;-84
2023/06/08 05:06:54;;;;;;;18.30;9.88;;;;;;;20.49;66.06;99671.84;7847964;31;39301;-83
2023/06/08 05:11:10;;;;;;;14.73;9.82;;;;;;;20.66;65.12;99676.38;7847640;31;40766;-82
2023/06/08 05:15:27;;;;;;;17.55;9.90;;;;;;;20.63;65.72;99677.09;7824959;31;37668;-82
2023/06/08 05:19:43;;;;;;;16.45;9.88;;;;;;;20.25;66.75;99676.13;7829586;31;37209;-83
2023/06/08 05:23:59;;;;;;;14.93;9.15;;;;;;;20.31;67.14;99675.91;7847596;31;39570;-83
2023/06/08 05:28:17;;;;;;;17.98;9.40;;;;;;;20.56;66.54;99674.03;7832535;31;40768;-84
2023/06/08 05:32:33;;;;;;;15.55;10.02;;;;;;;20.67;65.92;99677.22;7823954;31;37929;-87
2023/06/08 05:36:50;;;;;;;16.05;9.30;;;;;;;20.41;67.07;99689.34;7818992;31;37055;-85
2023/06/08 05:41:06;;;;;;;17.52;10.13;;;;;;;20.82;65.70;99676.56;7845491;31;39202;-85
2023/06/08 05:45:23;;;;;;;17.90;10.27;;;;;;;20.93;65.02;99674.94;7847380;31;40895;-85
2023/06/08 05:49:43;;;;;;;16.52;9.48;;;;;;;21.14;64.53;99662.94;7846410;31;38859;-85
2023/06/08 05:53:59;;;;;;;16.83;9.48;;;;;;;21.41;64.22;99671.75;7846421;31;38192;-85
2023/06/08 05:58:17;;;;;;;12.57;8.98;;;;;;;21.58;63.25;99677.06;7834614;31;40051;-81
2023/06/08 06:02:33;;;;;;;14.80;9.27;;;;;;;21.77;63.23;99673.69;7839043;31;40189;-71
2023/06/08 06:06:49;;;;;;;14.65;9.00;;;;;;;21.19;64.30;99671.03;7844025;31;38326;-82
2023/06/08 06:11:05;;;;;;;15.82;9.23;;;;;;;21.69;63.28;99664.31;7821854;31;37179;-72
2023/06/08 06:15:22;;;;;;;15.07;9.40;;;;;;;21.88;61.40;99671.22;7819214;31;39293;-72
2023/06/08 06:19:38;;;;;;;18.10;8.90;;;;;;;21.97;62.92;99671.88;7830324;31;39835;-82
2023/06/08 06:23:54;;;;;;;14.27;8.63;;;;;;;22.27;61.79;99677.94;7834761;31;38524;-83
2023/06/08 06:28:11;;;;;;;16.67;9.02;;;;;;;22.23;60.73;99677.03;7820516;31;37954;-82
2023/06/08 06:32:27;;;;;;;17.42;9.43;;;;;;;22.32;60.56;99682.44;7832530;31;40113;-83
2023/06/08 06:36:43;;;;;;;15.18;9.40;;;;;;;22.24;60.63;99683.38;7825116;31;40184;-82
2023/06/08 06:41:00;;;;;;;13.75;9.48;;;;;;;22.28;60.05;99678.75;7840088;31;38224;-81
2023/06/08 06:45:16;;;;;;;18.60;11.12;;;;;;;22.50;59.28;99683.72;7820151;31;37058;-80
2023/06/08 06:49:32;;;;;;;17.40;10.50;;;;;;;22.46;59.25;99682.03;7835569;31;40695;-82
2023/06/08 06:53:48;;;;;;;15.15;10.07;;;;;;;22.62;58.29;99676.50;7831477;31;39757;-81
2023/06/08 06:58:06;;;;;;;15.48;9.07;;;;;;;22.83;59.34;99674.28;7822618;31;38771;-82
2023/06/08 07:02:23;;;;;;;14.10;8.77;;;;;;;23.15;58.29;99679.09;7834285;31;37797;-82
2023/06/08 07:06:41;;;;;;;13.00;9.05;;;;;;;23.05;57.45;99672.06;7829333;31;40175;-80
2023/06/08 07:10:57;;;;;;;13.60;9.20;;;;;;;23.37;57.41;99677.62;7817962;31;39998;-81
2023/06/08 07:15:14;;;;;;;13.85;8.90;;;;;;;23.24;56.23;99683.28;7825017;31;38722;-81
2023/06/08 07:19:33;;;;;;;13.52;8.45;;;;;;;23.70;56.47;99670.81;7837266;31;37143;-82
2023/06/08 07:23:50;;;;;;;14.48;9.50;;;;;;;23.79;54.66;99663.88;7845121;31;40033;-82
2023/06/08 07:28:27;;;;;;;14.23;9.55;;;;;;;23.69;55.99;99667.25;7827252;31;39987;-81
2023/06/08 07:32:45;;;;;;;14.23;9.00;;;;;;;24.06;55.46;99663.28;7817538;31;37855;-80
2023/06/08 07:37:02;;;;;;;18.42;10.82;;;;;;;24.18;54.79;99666.75;7828381;31;36833;-81
2023/06/08 07:41:18;;;;;;;18.50;11.05;;;;;;;24.25;52.02;99668.88;7829485;31;39398;-80
2023/06/08 07:45:35;;;;;;;15.15;10.43;;;;;;;23.81;53.57;99660.78;7823578;31;40506;-80
2023/06/08 07:49:51;;;;;;;14.82;10.13;;;;;;;24.13;52.65;99655.91;7818182;31;38617;-81
2023/06/08 07:54:07;;;;;;;15.40;10.18;;;;;;;24.34;52.72;99660.28;7821681;31;37148;-81
2023/06/08 07:58:23;;;;;;;17.40;11.40;;;;;;;23.86;53.17;99668.03;7828178;31;39065;-80
2023/06/08 08:02:39;;;;;;;14.00;10.20;;;;;;;24.20;53.92;99663.59;7822428;31;40825;-84
2023/06/08 08:06:56;;;;;;;16.52;10.45;;;;;;;24.37;53.89;99660.34;7828679;31;37991;-85
2023/06/08 08:11:12;;;;;;;14.23;10.35;;;;;;;24.27;52.57;99655.38;7822684;31;37087;-87
2023/06/08 08:15:29;;;;;;;15.23;10.52;;;;;;;24.44;53.37;99648.53;7825823;31;39084;-85
2023/06/08 08:19:45;;;;;;;14.02;9.82;;;;;;;24.70;52.93;99650.63;7848132;31;39888;-86
2023/06/08 08:24:01;;;;;;;12.30;9.25;;;;;;;24.81;53.74;99644.44;7838307;31;38878;-83
2023/06/08 08:28:18;;;;;;;15.82;10.02;;;;;;;25.05;53.61;99646.84;7833336;31;37051;-83
2023/06/08 08:32:34;;;;;;;14.60;10.65;;;;;;;25.27;52.89;99647.22;7848249;31;39971;-86
2023/06/08 08:36:51;;;;;;;16.35;9.82;;;;;;;25.37;52.55;99638.22;7821445;31;39775;-85
2023/06/08 08:41:12;;;;;;;13.57;9.32;;;;;;;25.45;50.14;99623.16;7847644;31;38067;-85
2023/06/08 08:45:34;;;;;;;12.30;8.82;;;;;;;25.17;49.32;99625.53;7848324;31;37862;-85
2023/06/08 08:50:15;;;;;;;13.02;9.52;;;;;;;25.61;49.60;99627.78;7848423;31;40034;-86
2023/06/08 08:54:33;;;;;;;13.75;8.90;;;;;;;25.58;49.38;99626.56;7848366;31;39832;-86
2023/06/08 08:58:50;;;;;;;10.77;7.68;;;;;;;25.88;48.46;99628.53;7848089;31;38159;-86
2023/06/08 09:03:07;;;;;;;11.63;8.23;;;;;;;25.86;47.09;99637.28;7841494;31;37106;-86
2023/06/08 09:07:24;;;;;;;13.00;8.63;;;;;;;25.85;48.68;99629.28;7824811;31;39462;-86
2023/06/08 09:12:04;;;;;;;10.88;7.80;;;;;;;25.99;46.87;99631.50;7837732;31;40744;-87
2023/06/08 09:16:21;;;;;;;11.25;7.93;;;;;;;26.21;46.81;99624.97;7834039;31;38457;-86
2023/06/08 09:20:37;;;;;;;9.60;6.95;;;;;;;26.40;48.02;99631.56;7820540;32;38050;-87
2023/06/08 09:24:55;;;;;;;14.95;8.57;;;;;;;26.42;45.56;99618.81;7820878;32;39309;-88
2023/06/08 09:29:12;;;;;;;10.25;7.07;;;;;;;26.34;46.41;99621.94;7830555;31;40198;-85
2023/06/08 09:33:33;;;;;;;11.80;7.55;;;;;;;26.42;45.63;99615.22;7823568;31;37782;-84
2023/06/08 09:37:50;;;;;;;11.93;7.82;;;;;;;26.90;45.01;99604.09;7841259;31;37896;-85
2023/06/08 09:42:08;;;;;;;10.75;7.87;;;;;;;26.69;47.09;99609.53;7828998;31;39221;-86
2023/06/08 09:46:41;;;;;;;12.32;9.00;;;;;;;27.01;46.05;99600.59;7844177;31;40063;-85
2023/06/08 09:51:00;;;;;;;15.45;9.02;;;;;;;27.07;45.66;99601.84;7847587;31;37888;-85
2023/06/08 09:55:17;;;;;;;10.05;7.93;;;;;;;26.96;48.10;99596.97;7847424;31;37894;-85
2023/06/08 09:59:38;;;;;;;14.87;8.07;;;;;;;26.66;47.54;99587.91;7846349;31;40005;-86
2023/06/08 10:03:57;;;;;;;11.05;8.60;;;;;;;27.02;45.97;99577.03;7846231;31;39888;-84
2023/06/08 10:08:21;;;;;;;12.23;8.35;;;;;;;26.79;45.56;99580.84;7847287;31;38452;-85
2023/06/08 10:12:38;;;;;;;10.70;8.32;;;;;;;26.32;48.22;99579.56;7845667;31;37481;-85
2023/06/08 10:16:56;;;;;;;11.93;8.00;;;;;;;26.24;47.08;99579.50;7847271;31;39142;-85
2023/06/08 10:21:13;;;;;;;12.07;7.78;;;;;;;26.14;47.65;99576.59;7847236;31;39758;-85
2023/06/08 10:25:33;;;;;;;11.12;8.10;;;;;;;25.47;48.96;99570.59;7847014;31;38614;-85
2023/06/08 10:29:59;;;;;;;11.30;7.80;;;;;;;25.94;48.43;99567.56;7842675;31;36978;-86
2023/06/08 10:34:17;;;;;;;11.43;8.40;;;;;;;25.83;48.26;99559.87;7842387;31;39862;-85
2023/06/08 10:38:59;;;;;;;14.25;8.98;;;;;;;25.98;48.91;99552.50;7843402;31;39548;-85
2023/06/08 10:43:16;;;;;;;11.48;8.93;;;;;;;26.08;48.84;99551.00;7841293;31;38612;-86
2023/06/08 10:48:01;;;;;;;16.05;10.90;;;;;;;25.99;49.42;99556.09;7842917;31;37177;-86
2023/06/08 10:52:19;;;;;;;14.48;12.05;;;;;;;25.43;52.03;99558.56;7832480;31;39259;-86
2023/06/08 10:56:47;;;;;;;16.83;12.23;;;;;;;25.52;50.89;99563.06;7841891;31;39855;-85
2023/06/08 11:01:29;;;;;;;18.67;13.38;;;;;;;25.21;51.64;99557.44;7846070;31;38167;-85
2023/06/08 11:05:50;;;;;;;17.60;14.00;;;;;;;24.92;53.09;99559.81;7845319;31;37375;-84
2023/06/08 11:10:07;;;;;;;20.15;14.52;;;;;;;24.77;54.24;99554.38;7844155;31;39773;-84
2023/06/08 11:14:24;;;;;;;23.08;14.75;;;;;;;24.68;55.17;99549.03;7845884;31;40864;-85
2023/06/08 11:18:42;;;;;;;19.52;14.65;;;;;;;24.33;56.14;99561.97;7846054;31;38725;-84
2023/06/08 11:23:00;;;;;;;18.08;13.60;;;;;;;23.96;57.65;99576.41;7843992;31;36242;-85
2023/06/08 11:27:17;;;;;;;16.23;11.10;;;;;;;24.15;57.33;99569.19;7832406;31;39556;-85
2023/06/08 11:31:39;;;;;;;13.32;10.60;;;;;;;24.00;56.67;99566.13;7833664;31;39933;-84
2023/06/08 11:35:56;;;;;;;15.23;10.90;;;;;;;24.14;55.95;99564.78;7847058;31;38651;-85
2023/06/08 11:40:13;;;;;;;15.55;10.40;;;;;;;24.14;55.70;99545.31;7822978;31;37377;-88
2023/06/08 11:44:30;;;;;;;16.27;10.00;;;;;;;24.49;55.32;99538.75;7821516;32;39422;-86
2023/06/08 11:48:47;;;;;;;15.65;10.00;;;;;;;24.29;56.48;99529.66;7821387;32;39730;-88
2023/06/08 11:53:03;;;;;;;18.02;10.40;;;;;;;24.41;55.67;99525.91;7821192;32;37969;-87
2023/06/08 11:57:21;;;;;;;15.10;9.15;;;;;;;24.41;56.50;99528.69;7821255;32;37164;-83
2023/06/08 12:01:52;;;;;;;13.10;9.30;;;;;;;24.37;57.07;99521.06;7839350;31;39471;-83
2023/06/08 12:06:09;;;;;;;13.05;9.60;;;;;;;24.58;57.09;99517.06;7836738;31;40078;-85
2023/06/08 12:10:37;;;;;;;14.43;9.15;;;;;;;24.84;57.18;99521.06;7833929;31;37951;-85
2023/06/08 12:14:56;;;;;;;12.63;8.68;;;;;;;25.12;56.11;99524.25;7824428;31;37862;-84
2023/06/08 12:19:12;;;;;;;11.73;8.38;;;;;;;25.09;55.68;99525.00;7842820;31;40836;-84
2023/06/08 12:23:28;;;;;;;10.13;7.60;;;;;;;25.17;55.42;99522.31;7833939;31;40813;-84
2023/06/08 12:27:47;;;;;;;12.13;7.75;;;;;;;25.38;54.42;99528.22;7840633;31;37652;-84
2023/06/08 12:32:04;;;;;;;10.60;7.35;;;;;;;25.65;53.91;99536.53;7836025;31;37856;-84
2023/06/08 12:36:21;;;;;;;9.38;6.57;;;;;;;25.24;54.08;99539.94;7835507;31;38954;-83
2023/06/08 12:40:37;;;;;;;8.88;6.18;;;;;;;25.41;54.16;99521.87;7846153;31;39946;-85
2023/06/08 12:44:54;;;;;;;10.45;5.95;;;;;;;25.63;53.68;99522.13;7836960;31;38807;-85
2023/06/08 12:49:10;;;;;;;8.82;6.40;;;;;;;25.65;51.28;99526.16;7835067;31;37115;-84
2023/06/08 12:53:27;;;;;;;10.70;7.15;;;;;;;25.76;51.04;99506.75;7842084;31;39329;-86
2023/06/08 12:57:43;;;;;;;9.73;6.57;;;;;;;26.27;51.51;99512.87;7845223;31;40781;-83
2023/06/08 13:02:00;;;;;;;8.63;5.72;;;;;;;26.55;51.02;99510.34;7836215;31;37740;-84
2023/06/08 13:06:16;;;;;;;9.05;5.22;;;;;;;27.22;49.31;99502.03;7837832;31;37220;-87
2023/06/08 13:10:33;;;;;;;9.40;4.80;;;;;;;27.10;45.93;99505.94;7830588;31;39198;-85
2023/06/08 13:14:50;;;;;;;7.68;4.45;;;;;;;26.93;45.87;99505.44;7820493;32;40188;-85
2023/06/08 13:19:06;;;;;;;6.18;4.25;;;;;;;27.12;45.88;99497.97;7843373;31;37906;-83
2023/06/08 13:23:24;;;;;;;6.00;4.07;;;;;;;26.97;45.10;99497.06;7847360;31;36832;-83
2023/06/08 13:27:41;;;;;;;6.68;4.30;;;;;;;27.01;43.92;99497.91;7847797;31;39084;-84
2023/06/08 13:31:58;;;;;;;6.18;4.22;;;;;;;26.63;47.08;99502.03;7847524;31;40984;-73
2023/06/08 13:36:14;;;;;;;11.70;5.45;;;;;;;26.77;46.07;99490.97;7847682;31;37923;-80
2023/06/08 13:40:34;;;;;;;8.93;6.10;;;;;;;26.84;47.35;99477.03;7847528;31;37212;-85
2023/06/08 13:44:51;;;;;;;10.57;6.95;;;;;;;26.60;48.35;99482.00;7847582;31;39466;-85
2023/06/08 13:49:08;;;;;;;9.38;6.12;;;;;;;27.44;47.11;99474.94;7758442;31;40021;-83
2023/06/08 13:53:24;;;;;;;8.98;6.35;;;;;;;27.92;46.71;99466.31;7792202;32;37863;-84
2023/06/08 13:57:40;;;;;;;9.98;6.60;;;;;;;27.48;45.97;99465.38;7779668;32;37771;-84
2023/06/08 14:01:59;;;;;;;11.20;6.95;;;;;;;27.15;46.97;99463.62;7764664;32;39341;-85
2023/06/08 14:06:20;;;;;;;10.10;6.65;;;;;;;26.69;50.10;99452.97;7764120;32;39135;-85
2023/06/08 14:10:36;;;;;;;10.70;6.55;;;;;;;26.69;49.96;99461.34;7764288;32;38622;-85
2023/06/08 14:14:53;;;;;;;10.80;7.43;;;;;;;26.67;49.81;99472.12;7765272;32;37750;-85
2023/06/08 14:19:14;;;;;;;9.98;6.85;;;;;;;26.39;51.58;99479.06;7764338;32;39149;-85
2023/06/08 14:23:33;;;;;;;10.35;6.90;;;;;;;26.37;51.90;99487.00;7764884;32;41493;-85
2023/06/08 14:27:50;;;;;;;10.02;6.55;;;;;;;26.21;52.42;99478.91;7764390;32;38663;-85
2023/06/08 14:32:07;;;;;;;9.43;6.30;;;;;;;26.40;51.57;99478.66;7758446;32;179569;-84
2023/06/08 14:36:24;;;;;;;10.57;6.75;;;;;;;26.08;51.90;99481.19;7763417;32;39233;-85
2023/06/08 14:40:41;;;;;;;10.38;7.07;;;;;;;26.09;51.77;99471.59;7763895;32;40745;-85
2023/06/08 14:44:58;;;;;;;11.12;7.22;;;;;;;26.07;51.90;99462.03;7764804;32;37824;-85
2023/06/08 14:49:15;;;;;;;11.27;6.95;;;;;;;26.32;51.94;99467.81;7756702;32;37062;-85
2023/06/08 14:53:32;;;;;;;11.10;6.80;;;;;;;26.24;52.60;99462.16;7764604;32;38812;-85
2023/06/08 14:57:49;;;;;;;8.95;6.15;;;;;;;26.51;52.02;99455.59;7764018;32;40614;-85
2023/06/08 15:02:06;;;;;;;9.45;6.60;;;;;;;26.38;51.55;99447.50;7762087;32;37501;-85
2023/06/08 15:06:22;;;;;;;9.52;6.68;;;;;;;26.41;50.36;99443.94;7763913;32;37058;-85
2023/06/08 15:10:38;;;;;;;9.30;6.55;;;;;;;26.04;51.81;99435.66;7763364;32;40180;-85
2023/06/08 15:14:55;;;;;;;12.05;6.40;;;;;;;26.22;52.41;99441.41;7763957;32;40718;-85
2023/06/08 15:19:11;;;;;;;9.52;6.07;;;;;;;26.29;52.88;99435.06;7763589;32;37869;-86
2023/06/08 15:23:28;;;;;;;8.93;5.20;;;;;;;26.35;51.97;99427.91;7763302;32;37175;-85
2023/06/08 15:27:44;;;;;;;8.43;5.32;;;;;;;26.72;49.22;99422.22;7763689;32;39335;-85
2023/06/08 15:32:01;;;;;;;9.38;5.53;;;;;;;26.52;48.46;99424.44;7762884;32;40935;-84
2023/06/08 15:36:18;;;;;;;8.55;5.53;;;;;;;26.72;49.27;99425.03;7763590;32;38161;-86
2023/06/08 15:40:34;;;;;;;9.23;5.57;;;;;;;27.03;48.76;99419.16;7762918;32;37700;-84
2023/06/08 15:44:51;;;;;;;10.23;5.70;;;;;;;27.08;47.45;99416.00;7759078;32;39887;-84
2023/06/08 15:49:07;;;;;;;8.15;5.20;;;;;;;26.40;49.43;99411.59;7757164;32;39932;-85
2023/06/08 15:53:24;;;;;;;8.48;4.95;;;;;;;27.14;48.41;99406.84;7760844;32;37031;-84
2023/06/08 15:57:41;;;;;;;9.82;5.22;;;;;;;27.27;47.69;99398.91;7759521;32;37950;-84
2023/06/08 16:01:57;;;;;;;9.23;5.30;;;;;;;27.32;46.68;99397.75;7759054;32;39796;-83
2023/06/08 16:06:17;;;;;;;9.05;5.05;;;;;;;27.33;47.55;99402.16;7743860;32;39787;-86
2023/06/08 16:10:35;;;;;;;8.25;5.28;;;;;;;27.01;48.14;99399.19;7733965;32;38678;-85
2023/06/08 16:14:51;;;;;;;8.77;5.47;;;;;;;27.23;46.73;99386.88;7753866;32;37088;-85
2023/06/08 16:19:07;;;;;;;8.10;4.93;;;;;;;26.82;47.06;99392.72;7766282;32;37864;-86
2023/06/08 16:23:24;;;;;;;7.18;4.60;;;;;;;26.67;47.90;99386.25;7765822;32;40857;-84
2023/06/08 16:27:41;;;;;;;10.48;5.28;;;;;;;26.12;48.58;99387.03;7766086;32;38592;-84
2023/06/08 16:31:59;;;;;;;8.13;4.60;;;;;;;26.47;47.87;99388.47;7764758;32;37089;-85
2023/06/08 16:36:16;;;;;;;11.57;4.45;;;;;;;26.22;48.27;99397.50;7765641;32;39257;-84
2023/06/08 16:40:34;;;;;;;10.45;5.10;;;;;;;26.19;48.38;99389.88;7765914;32;39866;-86
2023/06/08 16:44:51;;;;;;;8.65;5.45;;;;;;;26.16;48.79;99387.88;7765613;32;38604;-86
2023/06/08 16:49:07;;;;;;;9.15;5.28;;;;;;;25.94;50.42;99386.91;7758202;32;37149;-85
2023/06/08 16:53:24;;;;;;;10.48;4.93;;;;;;;26.01;50.14;99380.59;7765684;32;39325;-85
2023/06/08 16:57:42;;;;;;;10.80;5.35;;;;;;;25.91;50.23;99387.62;7758159;32;40843;-86
2023/06/08 17:01:59;;;;;;;6.68;4.65;;;;;;;26.05;50.57;99392.56;7759299;32;37719;-85
2023/06/08 17:06:18;;;;;;;8.23;5.35;;;;;;;25.86;51.08;99390.78;7753333;32;36994;-88
2023/06/08 17:10:35;;;;;;;8.38;4.87;;;;;;;25.74;50.97;99389.06;7765285;32;40023;-88
2023/06/08 17:14:52;;;;;;;11.18;5.40;;;;;;;25.68;51.95;99390.59;7765389;32;39914;-86
2023/06/08 17:19:09;;;;;;;12.85;6.20;;;;;;;25.51;52.37;99402.38;7765609;32;37890;-87
2023/06/08 17:23:26;;;;;;;8.20;4.72;;;;;;;25.49;52.55;99405.56;7772757;32;37505;-88
2023/06/08 17:27:43;;;;;;;9.27;5.68;;;;;;;25.51;51.88;99402.38;7780909;32;39397;-89
2023/06/08 17:31:59;;;;;;;13.18;7.78;;;;;;;25.42;52.18;99411.88;7765354;32;40807;-88
2023/06/08 17:36:16;;;;;;;12.73;6.75;;;;;;;25.33;53.29;99414.16;7761591;32;38778;-85
2023/06/08 17:40:34;;;;;;;11.48;6.05;;;;;;;25.35;53.78;99422.94;7760975;32;35680;-85
2023/06/08 17:44:50;;;;;;;10.00;5.20;;;;;;;25.26;54.28;99425.22;7764783;32;39296;-85
2023/06/08 17:49:06;;;;;;;9.00;5.07;;;;;;;25.14;54.66;99412.31;7756508;32;39680;-85
2023/06/08 17:53:24;;;;;;;6.93;4.62;;;;;;;25.14;54.51;99414.31;7764016;32;38657;-85
2023/06/08 17:57:41;;;;;;;8.50;4.65;;;;;;;25.02;54.91;99399.41;7755909;32;37054;-86
2023/06/08 18:01:58;;;;;;;6.15;4.43;;;;;;;24.47;56.59;99396.22;7760715;32;39352;-85
2023/06/08 18:06:15;;;;;;;8.43;4.40;;;;;;;24.55;56.18;99403.56;7759664;32;40800;-86
2023/06/08 18:10:44;;;;;;;5.90;3.83;;;;;;;24.28;56.97;99399.94;7754864;32;37831;-86
2023/06/08 18:15:00;;;;;;;6.32;4.12;;;;;;;24.27;56.39;99393.56;7779976;32;36960;-79
2023/06/08 18:19:16;;;;;;;6.15;3.60;;;;;;;24.22;56.33;99399.44;7792063;32;39263;-90
2023/06/08 18:23:35;;;;;;;7.28;4.20;;;;;;;24.03;57.05;99402.31;7779027;32;40591;-89
2023/06/08 18:27:52;;;;;;;4.80;3.28;;;;;;;23.94;57.14;99408.94;7764941;32;37021;-84
2023/06/08 18:32:10;;;;;;;7.95;4.15;;;;;;;23.88;57.00;99415.19;7789387;32;37141;-86
2023/06/08 18:36:26;;;;;;;6.10;3.78;;;;;;;23.77;56.98;99409.41;7774168;32;39839;-85
2023/06/08 18:40:43;;;;;;;7.57;3.85;;;;;;;23.62;57.51;99414.69;7760365;32;38692;-85
2023/06/08 18:44:59;;;;;;;7.20;4.00;;;;;;;23.38;58.36;99420.59;7763734;32;38839;-86
2023/06/08 18:49:19;;;;;;;6.50;3.70;;;;;;;23.05;59.66;99430.22;7761554;32;38074;-86
2023/06/08 18:53:35;;;;;;;5.37;3.70;;;;;;;23.11;59.35;99428.78;7761303;32;39401;-86
2023/06/08 18:57:52;;;;;;;5.82;4.00;;;;;;;22.80;60.40;99441.59;7762561;32;39995;-83
2023/06/08 19:02:08;;;;;;;6.15;3.78;;;;;;;22.92;60.01;99442.63;7760498;32;37946;-83
2023/06/08 19:06:25;;;;;;;6.62;4.22;;;;;;;22.84;60.27;99447.22;7760872;32;37832;-84
2023/06/08 19:10:44;;;;;;;6.05;3.85;;;;;;;22.70;60.64;99456.06;7761353;32;39326;-89
2023/06/08 19:15:01;;;;;;;8.23;3.75;;;;;;;22.79;60.35;99450.28;7760918;32;38503;-85
2023/06/08 19:19:18;;;;;;;8.40;3.65;;;;;;;22.70;60.58;99447.72;7760671;32;38553;-85
2023/06/08 19:23:34;;;;;;;9.32;4.32;;;;;;;22.57;61.03;99449.00;7759975;32;37023;-85
2023/06/08 19:27:53;;;;;;;6.37;3.97;;;;;;;22.59;60.77;99450.22;7760248;32;39177;-85
2023/06/08 19:32:11;;;;;;;7.32;3.47;;;;;;;22.45;61.12;99445.13;7765975;32;40786;-85
2023/06/08 19:36:28;;;;;;;7.43;3.70;;;;;;;22.39;61.12;99457.72;7784109;32;37918;-85
2023/06/08 19:40:45;;;;;;;7.32;3.70;;;;;;;22.48;60.64;99447.19;7760016;32;36857;-86
2023/06/08 19:45:02;;;;;;;7.75;3.85;;;;;;;22.54;60.29;99449.69;7760785;32;39470;-84
2023/06/08 19:49:20;;;;;;;5.80;3.85;;;;;;;22.38;60.55;99464.41;7760103;32;38897;-84
2023/06/08 19:53:37;;;;;;;5.80;3.70;;;;;;;22.42;60.27;99470.88;7765062;32;38713;-87
2023/06/08 19:57:53;;;;;;;7.68;3.97;;;;;;;22.25;60.83;99462.84;7766312;32;37208;-85
2023/06/08 20:02:11;;;;;;;7.32;3.83;;;;;;;22.26;60.81;99468.06;7766256;32;39418;-84